createdAt,value
2023-05-17T00:01:31.968Z,31.55
2023-05-17T00:04:17.802Z,32.40
2023-05-17T00:07:03.206Z,31.23
2023-05-17T00:09:48.754Z,32.45
2023-05-17T00:12:34.680Z,44.45
2023-05-17T00:15:20.320Z,48.28
2023-05-17T00:18:06.003Z,41.13
2023-05-17T00:20:51.486Z,54.90
2023-05-17T00:23:36.991Z,38.95
2023-05-17T00:26:22.511Z,45.58
2023-05-17T00:29:07.993Z,49.15
2023-05-17T00:31:53.571Z,39.30
2023-05-17T00:34:39.179Z,35.13
2023-05-17T00:37:24.765Z,32.13
2023-05-17T00:40:11.019Z,26.17
2023-05-17T00:42:56.540Z,30.55
2023-05-17T00:45:42.063Z,24.83
2023-05-17T00:48:29.867Z,24.42
2023-05-17T00:51:18.021Z,25.02
2023-05-17T00:54:04.964Z,28.73
2023-05-17T00:56:50.657Z,30.58
2023-05-17T00:59:37.509Z,30.35
2023-05-17T01:02:23.535Z,26.30
2023-05-17T01:05:09.591Z,39.80
2023-05-17T01:07:55.084Z,21.85
2023-05-17T01:10:52.922Z,25.25
2023-05-17T01:14:03.753Z,25.15
2023-05-17T01:16:57.606Z,27.85
2023-05-17T01:20:07.752Z,31.15
2023-05-17T01:23:15.411Z,30.33
2023-05-17T01:26:22.521Z,33.10
2023-05-17T01:29:09.973Z,35.55
2023-05-17T01:31:57.876Z,30.75
2023-05-17T01:34:44.095Z,35.60
2023-05-17T01:37:30.045Z,31.30
2023-05-17T01:40:17.150Z,38.60
2023-05-17T01:43:17.547Z,34.92
2023-05-17T01:46:48.061Z,37.97
2023-05-17T01:49:38.945Z,40.80
2023-05-17T01:52:43.684Z,35.35
2023-05-17T01:55:31.999Z,37.95
2023-05-17T01:58:21.657Z,30.85
2023-05-17T02:01:08.331Z,31.95
2023-05-17T02:03:54.051Z,31.08
2023-05-17T02:06:39.423Z,32.40
2023-05-17T02:09:24.760Z,29.85
2023-05-17T02:12:10.311Z,34.80
2023-05-17T02:14:55.891Z,31.27
2023-05-17T02:17:41.571Z,37.38
2023-05-17T02:20:27.021Z,37.25
2023-05-17T02:23:12.298Z,38.08
2023-05-17T02:25:57.947Z,33.42
2023-05-17T02:28:43.374Z,34.28
2023-05-17T02:31:29.250Z,35.53
2023-05-17T02:34:14.980Z,30.20
2023-05-17T02:37:00.552Z,29.35
2023-05-17T02:39:46.010Z,26.13
2023-05-17T02:42:32.381Z,27.92
2023-05-17T02:45:18.278Z,33.47
2023-05-17T02:48:03.913Z,23.17
2023-05-17T02:50:49.597Z,23.80
2023-05-17T02:53:35.220Z,23.50
2023-05-17T02:56:20.682Z,21.13
2023-05-17T02:59:06.171Z,22.33
2023-05-17T03:01:51.646Z,21.95
2023-05-17T03:04:37.301Z,17.30
2023-05-17T03:07:22.900Z,16.20
2023-05-17T03:10:08.652Z,18.60
2023-05-17T03:12:54.464Z,20.52
2023-05-17T03:15:40.057Z,24.67
2023-05-17T03:18:25.757Z,19.70
2023-05-17T03:21:11.671Z,26.10
2023-05-17T03:23:57.187Z,19.92
2023-05-17T03:26:42.705Z,21.52
2023-05-17T03:29:28.029Z,19.73
2023-05-17T03:32:13.940Z,19.33
2023-05-17T03:34:59.836Z,22.98
2023-05-17T03:37:45.376Z,19.48
2023-05-17T03:40:31.144Z,22.35
2023-05-17T03:43:17.986Z,26.90
2023-05-17T03:46:03.443Z,26.58
2023-05-17T03:48:49.089Z,27.38
2023-05-17T03:51:34.746Z,27.13
2023-05-17T03:54:20.187Z,26.15
2023-05-17T03:57:06.020Z,23.52
2023-05-17T03:59:51.401Z,24.65
2023-05-17T04:02:36.847Z,22.23
2023-05-17T04:05:22.329Z,28.75
2023-05-17T04:08:07.801Z,21.17
2023-05-17T04:10:53.555Z,29.67
2023-05-17T04:13:42.812Z,32.80
2023-05-17T04:16:28.370Z,28.98
2023-05-17T04:19:14.115Z,27.45
2023-05-17T04:21:59.607Z,33.72
2023-05-17T04:24:45.458Z,28.80
2023-05-17T04:27:32.431Z,25.90
2023-05-17T04:30:18.129Z,32.88
2023-05-17T04:33:03.344Z,26.90
2023-05-17T04:35:50.188Z,29.25
2023-05-17T04:38:35.914Z,26.38
2023-05-17T04:41:21.528Z,33.20
2023-05-17T04:44:08.187Z,27.73
2023-05-17T04:46:53.824Z,29.52
2023-05-17T04:49:39.323Z,33.15
2023-05-17T04:52:24.818Z,25.33
2023-05-17T04:55:10.699Z,23.88
2023-05-17T04:57:56.106Z,28.50
2023-05-17T05:00:41.768Z,22.27
2023-05-17T05:03:27.434Z,27.90
2023-05-17T05:06:13.264Z,25.63
2023-05-17T05:08:59.182Z,26.13
2023-05-17T05:11:44.880Z,30.23
2023-05-17T05:14:30.557Z,38.92
2023-05-17T05:17:16.192Z,29.17
2023-05-17T05:20:01.579Z,28.38
2023-05-17T05:22:47.130Z,29.73
2023-05-17T05:25:33.480Z,30.52
2023-05-17T05:28:19.213Z,28.15
2023-05-17T05:31:05.335Z,25.85
2023-05-17T05:33:52.425Z,30.10
2023-05-17T05:36:38.436Z,24.75
2023-05-17T05:39:23.610Z,19.45
2023-05-17T05:42:09.109Z,19.63
2023-05-17T05:44:54.766Z,19.58
2023-05-17T05:47:40.597Z,22.35
2023-05-17T05:50:26.680Z,19.08
2023-05-17T05:53:18.980Z,16.35
2023-05-17T05:56:05.827Z,15.90
2023-05-17T05:58:51.539Z,21.67
2023-05-17T06:01:38.063Z,20.05
2023-05-17T06:04:32.778Z,15.50
2023-05-17T06:07:26.750Z,21.20
2023-05-17T06:10:12.356Z,20.80
2023-05-17T06:12:58.056Z,17.98
2023-05-17T06:15:43.778Z,15.55
2023-05-17T06:18:29.515Z,24.23
2023-05-17T06:21:16.238Z,22.45
2023-05-17T06:24:04.706Z,15.45
2023-05-17T06:26:50.404Z,15.80
2023-05-17T06:29:36.350Z,15.93
2023-05-17T06:32:21.831Z,14.52
2023-05-17T06:35:08.428Z,14.65
2023-05-17T06:37:53.808Z,14.02
2023-05-17T06:40:39.549Z,15.70
2023-05-17T06:43:24.909Z,14.88
2023-05-17T06:46:19.302Z,15.05
2023-05-17T06:49:06.472Z,18.58
2023-05-17T06:51:52.252Z,18.48
2023-05-17T06:54:40.979Z,17.08
2023-05-17T06:57:26.408Z,16.42
2023-05-17T07:00:13.057Z,16.17
2023-05-17T07:02:58.739Z,17.92
2023-05-17T07:05:44.070Z,12.07
2023-05-17T07:08:30.008Z,15.75
2023-05-17T07:11:15.435Z,15.82
2023-05-17T07:14:01.104Z,17.92
2023-05-17T07:16:47.934Z,12.80
2023-05-17T07:19:33.046Z,15.73
2023-05-17T07:22:19.375Z,18.25
2023-05-17T07:25:05.669Z,15.30
2023-05-17T07:27:51.301Z,11.95
2023-05-17T07:30:36.877Z,14.30
2023-05-17T07:33:22.395Z,14.00
2023-05-17T07:36:08.490Z,16.77
2023-05-17T07:38:53.929Z,20.42
2023-05-17T07:41:39.846Z,18.35
2023-05-17T07:44:25.610Z,16.17
2023-05-17T07:47:11.181Z,15.30
2023-05-17T07:49:56.574Z,17.20
2023-05-17T07:52:42.062Z,15.82
2023-05-17T07:55:31.184Z,16.60
2023-05-17T07:58:16.524Z,15.38
2023-05-17T08:01:02.110Z,14.77
2023-05-17T08:03:48.394Z,16.27
2023-05-17T08:06:34.244Z,20.38
2023-05-17T08:09:20.060Z,13.95
2023-05-17T08:12:06.103Z,14.02
2023-05-17T08:14:51.637Z,15.40
2023-05-17T08:17:37.329Z,15.80
2023-05-17T08:20:22.915Z,13.57
2023-05-17T08:23:10.933Z,15.80
2023-05-17T08:25:59.157Z,16.48
2023-05-17T08:28:44.809Z,15.32
2023-05-17T08:31:31.351Z,14.90
2023-05-17T08:34:17.539Z,15.00
2023-05-17T08:37:03.450Z,16.17
2023-05-17T08:39:49.792Z,16.17
2023-05-17T08:42:36.644Z,17.95
2023-05-17T08:45:23.046Z,15.45
2023-05-17T08:48:08.639Z,14.82
2023-05-17T08:50:55.856Z,14.30
2023-05-17T08:53:42.515Z,16.77
2023-05-17T08:56:31.039Z,13.93
2023-05-17T08:59:16.549Z,12.10
2023-05-17T09:02:02.451Z,11.95
2023-05-17T09:04:50.370Z,17.08
2023-05-17T09:07:36.673Z,13.15
2023-05-17T09:10:22.969Z,16.17
2023-05-17T09:13:11.702Z,14.13
2023-05-17T09:15:57.255Z,16.58
2023-05-17T09:18:42.963Z,14.10
2023-05-17T09:21:30.967Z,16.98
2023-05-17T09:24:27.207Z,17.13
2023-05-17T09:27:18.554Z,17.17
2023-05-17T09:30:09.910Z,16.17
2023-05-17T09:32:55.830Z,14.68
2023-05-17T09:35:43.835Z,19.77
2023-05-17T09:38:30.022Z,17.23
2023-05-17T09:41:17.636Z,15.95
2023-05-17T09:44:09.417Z,11.75
2023-05-17T09:46:58.163Z,14.37
2023-05-17T09:49:43.738Z,16.05
2023-05-17T09:52:31.851Z,14.77
2023-05-17T09:55:18.481Z,14.48
2023-05-17T09:58:04.046Z,13.18
2023-05-17T10:00:54.101Z,14.57
2023-05-17T10:03:39.752Z,15.02
2023-05-17T10:09:21.989Z,14.20
2023-05-17T10:12:10.300Z,15.55
2023-05-17T10:14:56.490Z,11.85
2023-05-17T10:17:45.435Z,14.73
2023-05-17T10:20:31.535Z,13.02
2023-05-17T10:23:18.143Z,11.13
2023-05-17T10:26:04.529Z,13.05
2023-05-17T10:28:53.473Z,15.60
2023-05-17T10:31:43.524Z,12.52
2023-05-17T10:34:30.949Z,13.73
2023-05-17T10:37:19.569Z,16.67
2023-05-17T10:40:05.630Z,11.45
2023-05-17T10:42:53.835Z,14.05
2023-05-17T10:45:42.558Z,12.43
2023-05-17T10:48:31.113Z,16.05
2023-05-17T10:51:23.984Z,13.13
2023-05-17T10:54:18.359Z,10.80
2023-05-17T10:57:09.075Z,11.40
2023-05-17T11:00:04.289Z,12.13
2023-05-17T11:02:50.809Z,10.35
2023-05-17T11:05:36.539Z,10.98
2023-05-17T11:08:22.529Z,13.90
2023-05-17T11:11:13.045Z,12.75
2023-05-17T11:14:04.049Z,9.63
2023-05-17T11:16:58.186Z,10.10
2023-05-17T11:19:55.322Z,10.98
2023-05-17T11:22:59.520Z,9.63
2023-05-17T11:25:48.128Z,12.57
2023-05-17T11:28:35.617Z,9.00
2023-05-17T11:31:30.944Z,14.85
2023-05-17T11:34:18.542Z,11.98
2023-05-17T11:37:06.102Z,13.65
2023-05-17T11:40:08.749Z,12.57
2023-05-17T11:43:13.957Z,11.05
2023-05-17T11:46:03.851Z,13.18
2023-05-17T11:48:54.350Z,9.25
2023-05-17T11:51:41.273Z,12.75
2023-05-17T11:54:27.104Z,12.50
2023-05-17T11:57:16.823Z,12.43
2023-05-17T12:00:05.011Z,11.88
2023-05-17T12:02:50.297Z,10.43
2023-05-17T12:05:36.392Z,11.43
2023-05-17T12:08:22.087Z,11.48
2023-05-17T12:11:10.995Z,15.40
2023-05-17T12:13:57.181Z,13.45
2023-05-17T12:16:48.660Z,10.70
2023-05-17T12:19:34.227Z,11.85
2023-05-17T12:22:19.933Z,11.32
2023-05-17T12:25:19.759Z,12.32
2023-05-17T12:28:22.243Z,10.95
2023-05-17T12:31:15.930Z,10.20
2023-05-17T12:34:04.720Z,11.80
2023-05-17T12:36:51.403Z,11.30
2023-05-17T12:39:37.114Z,10.73
2023-05-17T12:42:22.970Z,13.55
2023-05-17T12:45:12.894Z,12.40
2023-05-17T12:48:00.442Z,11.50
2023-05-17T12:50:47.282Z,11.25
2023-05-17T12:53:40.879Z,10.98
2023-05-17T12:56:30.543Z,12.88
2023-05-17T12:59:17.665Z,14.00
2023-05-17T13:02:03.526Z,10.15
2023-05-17T13:04:49.239Z,10.35
2023-05-17T13:07:35.237Z,12.30
2023-05-17T13:10:22.061Z,10.43
2023-05-17T13:13:08.874Z,10.88
2023-05-17T13:15:58.621Z,12.70
2023-05-17T13:18:49.496Z,11.40
2023-05-17T13:21:34.683Z,12.73
2023-05-17T13:24:20.728Z,12.23
2023-05-17T13:27:07.175Z,11.15
2023-05-17T13:29:52.534Z,11.48
2023-05-17T13:32:38.073Z,13.43
2023-05-17T13:35:23.677Z,11.45
2023-05-17T13:38:09.089Z,11.50
2023-05-17T13:40:54.663Z,13.85
2023-05-17T13:43:40.628Z,12.02
2023-05-17T13:46:26.434Z,12.68
2023-05-17T13:49:12.938Z,11.25
2023-05-17T13:51:58.813Z,10.25
2023-05-17T13:54:44.079Z,14.05
2023-05-17T13:57:29.591Z,12.52
2023-05-17T14:00:16.300Z,10.27
2023-05-17T14:03:02.079Z,15.15
2023-05-17T14:05:50.395Z,14.10
2023-05-17T14:08:36.018Z,12.85
2023-05-17T14:11:21.600Z,11.32
2023-05-17T14:14:07.197Z,11.02
2023-05-17T14:16:52.393Z,11.27
2023-05-17T14:19:37.779Z,11.15
2023-05-17T14:22:23.535Z,11.43
2023-05-17T14:25:11.348Z,13.93
2023-05-17T14:27:56.790Z,11.68
2023-05-17T14:30:42.342Z,14.52
2023-05-17T14:33:28.356Z,12.95
2023-05-17T14:36:14.339Z,15.43
2023-05-17T14:38:59.743Z,12.38
2023-05-17T14:41:45.620Z,10.27
2023-05-17T14:44:31.423Z,14.43
2023-05-17T14:47:17.199Z,13.60
2023-05-17T14:50:02.998Z,7.85
2023-05-17T14:52:48.661Z,10.35
2023-05-17T14:55:34.298Z,10.85
2023-05-17T14:58:20.967Z,11.77
2023-05-17T15:01:07.139Z,11.82
2023-05-17T15:03:52.901Z,9.65
2023-05-17T15:06:38.677Z,10.55
2023-05-17T15:09:24.231Z,12.18
2023-05-17T15:12:13.736Z,14.95
2023-05-17T15:14:59.855Z,13.13
2023-05-17T15:17:45.248Z,16.40
2023-05-17T15:20:30.798Z,13.07
2023-05-17T15:23:16.829Z,13.93
2023-05-17T15:26:02.589Z,11.48
2023-05-17T15:28:49.984Z,13.10
2023-05-17T15:31:35.728Z,15.02
2023-05-17T15:34:21.281Z,11.60
2023-05-17T15:37:07.735Z,14.65
2023-05-17T15:39:53.364Z,13.23
2023-05-17T15:42:39.167Z,12.48
2023-05-17T15:45:24.735Z,10.90
2023-05-17T15:48:11.455Z,15.50
2023-05-17T15:50:57.767Z,14.50
2023-05-17T15:53:43.346Z,12.98
2023-05-17T15:56:28.841Z,15.70
2023-05-17T15:59:15.648Z,15.02
2023-05-17T16:02:01.394Z,15.82
2023-05-17T16:04:46.959Z,16.35
2023-05-17T16:07:32.575Z,13.82
2023-05-17T16:10:18.266Z,12.38
2023-05-17T16:13:05.028Z,14.98
2023-05-17T16:15:51.344Z,16.48
2023-05-17T16:18:36.928Z,14.50
2023-05-17T16:21:22.950Z,13.50
2023-05-17T16:24:09.952Z,18.08
2023-05-17T16:26:55.689Z,14.27
2023-05-17T16:29:41.442Z,17.52
2023-05-17T16:32:26.959Z,15.85
2023-05-17T16:35:13.000Z,17.25
2023-05-17T16:37:58.471Z,18.77
2023-05-17T16:40:43.978Z,16.33
2023-05-17T16:43:30.468Z,19.13
2023-05-17T16:46:16.131Z,18.90
2023-05-17T16:49:01.781Z,18.95
2023-05-17T16:51:47.414Z,16.13
2023-05-17T16:54:33.923Z,16.95
2023-05-17T16:57:19.757Z,16.58
2023-05-17T17:00:05.905Z,15.15
2023-05-17T17:02:51.790Z,15.93
2023-05-17T17:05:37.468Z,19.40
2023-05-17T17:08:23.102Z,15.07
2023-05-17T17:11:08.767Z,17.02
2023-05-17T17:13:54.225Z,18.65
2023-05-17T17:16:40.293Z,16.40
2023-05-17T17:19:25.948Z,14.02
2023-05-17T17:22:12.131Z,15.50
2023-05-17T17:24:57.735Z,15.75
2023-05-17T17:27:43.678Z,15.20
2023-05-17T17:30:29.774Z,18.20
2023-05-17T17:33:15.933Z,18.67
2023-05-17T17:36:02.491Z,21.42
2023-05-17T17:38:47.850Z,16.35
2023-05-17T17:41:33.815Z,15.48
2023-05-17T17:44:19.957Z,17.98
2023-05-17T17:47:06.275Z,21.98
2023-05-17T17:49:52.072Z,17.58
2023-05-17T17:52:37.839Z,13.93
2023-05-17T17:55:23.555Z,16.35
2023-05-17T17:58:09.509Z,13.35
2023-05-17T18:00:55.032Z,15.05
2023-05-17T18:03:40.725Z,12.75
2023-05-17T18:06:26.160Z,13.07
2023-05-17T18:09:11.763Z,16.30
2023-05-17T18:11:57.330Z,16.00
2023-05-17T18:14:42.760Z,18.63
2023-05-17T18:17:28.535Z,12.88
2023-05-17T18:20:14.175Z,13.75
2023-05-17T18:22:59.850Z,12.73
2023-05-17T18:25:46.994Z,16.98
2023-05-17T18:28:41.879Z,15.05
2023-05-17T18:31:27.893Z,17.38
2023-05-17T18:34:13.406Z,23.02
2023-05-17T18:36:58.818Z,15.88
2023-05-17T18:39:44.533Z,20.08
2023-05-17T18:42:29.875Z,19.33
2023-05-17T18:45:15.477Z,15.50
2023-05-17T18:48:01.057Z,14.55
2023-05-17T18:50:46.607Z,16.20
2023-05-17T18:53:32.263Z,21.23
2023-05-17T18:56:22.726Z,15.85
2023-05-17T18:59:08.649Z,17.55
2023-05-17T19:01:53.844Z,18.40
2023-05-17T19:04:39.751Z,19.70
2023-05-17T19:07:25.803Z,10.73
2023-05-17T19:10:11.326Z,18.75
2023-05-17T19:12:57.048Z,18.98
2023-05-17T19:15:43.131Z,13.75
2023-05-17T19:18:30.169Z,14.98
2023-05-17T19:21:15.539Z,13.73
2023-05-17T19:24:01.029Z,16.45
2023-05-17T19:26:46.784Z,12.20
2023-05-17T19:29:33.088Z,15.65
2023-05-17T19:32:19.866Z,17.38
2023-05-17T19:35:06.107Z,17.80
2023-05-17T19:37:51.405Z,16.15
2023-05-17T19:40:38.249Z,15.23
2023-05-17T19:43:23.899Z,17.45
2023-05-17T19:46:11.560Z,14.48
2023-05-17T19:48:57.330Z,12.63
2023-05-17T19:51:42.921Z,13.70
2023-05-17T19:54:29.524Z,13.55
2023-05-17T19:57:15.230Z,21.40
2023-05-17T20:00:00.860Z,10.55
2023-05-17T20:02:49.016Z,18.63
2023-05-17T20:05:34.886Z,18.48
2023-05-17T20:08:21.209Z,19.52
2023-05-17T20:11:07.299Z,14.55
2023-05-17T20:13:52.958Z,11.52
2023-05-17T20:16:38.862Z,18.40
2023-05-17T20:19:24.798Z,13.57
2023-05-17T20:22:10.574Z,15.23
2023-05-17T20:24:57.887Z,17.13
2023-05-17T20:27:44.091Z,14.43
2023-05-17T20:30:29.680Z,18.25
2023-05-17T20:33:15.546Z,13.23
2023-05-17T20:36:01.137Z,21.77
2023-05-17T20:38:46.573Z,17.60
2023-05-17T20:41:32.253Z,12.90
2023-05-17T20:44:18.742Z,13.50
2023-05-17T20:47:05.796Z,21.85
2023-05-17T20:49:51.340Z,16.08
2023-05-17T20:52:39.826Z,20.77
2023-05-17T20:55:25.911Z,16.88
2023-05-17T20:58:11.367Z,19.92
2023-05-17T21:00:58.035Z,18.83
2023-05-17T21:03:43.840Z,16.98
2023-05-17T21:06:32.262Z,20.30
2023-05-17T21:09:18.960Z,23.17
2023-05-17T21:12:04.662Z,20.15
2023-05-17T21:15:00.543Z,21.35
2023-05-17T21:17:53.712Z,18.25
2023-05-17T21:20:39.358Z,19.27
2023-05-17T21:23:24.608Z,22.10
2023-05-17T21:26:09.919Z,17.33
2023-05-17T21:28:55.524Z,19.80
2023-05-17T21:31:41.392Z,18.15
2023-05-17T21:34:27.056Z,17.42
2023-05-17T21:37:12.497Z,13.95
2023-05-17T21:39:58.100Z,15.93
2023-05-17T21:42:43.846Z,17.05
2023-05-17T21:45:29.777Z,16.63
2023-05-17T21:48:15.073Z,14.43
2023-05-17T21:51:00.923Z,23.55
2023-05-17T21:53:46.238Z,14.65
2023-05-17T21:56:36.045Z,19.50
2023-05-17T21:59:21.626Z,15.48
2023-05-17T22:02:08.656Z,17.77
2023-05-17T22:04:54.426Z,17.58
2023-05-17T22:07:40.669Z,18.27
2023-05-17T22:10:26.194Z,15.35
2023-05-17T22:13:12.583Z,11.90
2023-05-17T22:15:58.497Z,17.10
2023-05-17T22:18:45.492Z,12.38
2023-05-17T22:21:32.210Z,12.48
2023-05-17T22:24:19.907Z,10.73
2023-05-17T22:27:05.627Z,13.43
2023-05-17T22:29:51.020Z,11.68
2023-05-17T22:32:37.448Z,15.07
2023-05-17T22:35:24.335Z,16.23
2023-05-17T22:38:09.860Z,10.68
2023-05-17T22:40:55.989Z,9.82
2023-05-17T22:43:41.720Z,15.05
2023-05-17T22:46:27.828Z,12.00
2023-05-17T22:49:13.745Z,15.25
2023-05-17T22:52:05.306Z,14.30
2023-05-17T22:54:51.031Z,15.05
2023-05-17T22:57:36.852Z,9.75
2023-05-17T23:00:23.098Z,13.02
2023-05-17T23:03:08.897Z,11.07
2023-05-17T23:06:02.614Z,14.63
2023-05-17T23:08:52.997Z,11.65
2023-05-17T23:11:41.084Z,9.98
2023-05-17T23:14:26.901Z,10.70
2023-05-17T23:17:12.485Z,13.57
2023-05-17T23:20:10.181Z,11.82
2023-05-17T23:22:56.092Z,11.05
2023-05-17T23:25:41.988Z,13.95
2023-05-17T23:28:27.907Z,14.15
2023-05-17T23:31:13.693Z,16.58
2023-05-17T23:33:58.955Z,9.27
2023-05-17T23:36:44.595Z,16.00
2023-05-17T23:39:30.034Z,15.80
2023-05-17T23:42:15.519Z,11.70
2023-05-17T23:45:01.882Z,12.60
2023-05-17T23:47:47.770Z,8.98
2023-05-17T23:50:33.478Z,12.85
2023-05-17T23:53:19.732Z,12.60
2023-05-17T23:56:05.261Z,10.98
2023-05-17T23:58:51.064Z,10.27
